KJAS/JAS METAR and TAF weather

Enter ICAO airport designator
Station Type Date Time Source
KJAS METAR 2018/12/10 12:35 UTC NOAA

KJAS 101235Z AUTO 00000KT 1SM BR BKN002 M02/M02 A3035 RMK AO2 T10201020


Station Type Date Time Source
KJAS Decoded METAR 2018/12/10 12:35 UTC NOAA

Jasper, Jasper County-Bell Field Airport, TX, United States (KJAS) 30-53-08N 094-02-05W
Dec 10, 2018 - 07:35 AM EST / 2018.12.10 1235 UTC
Wind: Calm:0
Visibility: 1 mile(s):0
Sky conditions: mostly cloudy
Weather: mist
Temperature: 28.4 F (-2.0 C)
Dew Point: 28.4 F (-2.0 C)
Relative Humidity: 100%
Pressure (altimeter): 30.35 in. Hg (1027 hPa)
ob: KJAS 101235Z AUTO 00000KT 1SM BR BKN002 M02/M02 A3035 RMK AO2 T10201020
cycle: 12

Station Type Date Time Source
KJAS TAF UTC NOAA

Error!


Example: see airport list